createdAt,value
2023-04-28T00:02:09.172Z,100685.81
2023-04-28T00:04:38.962Z,100690.16
2023-04-28T00:07:09.324Z,100687.03
2023-04-28T00:09:38.984Z,100680.31
2023-04-28T00:12:08.824Z,100672.25
2023-04-28T00:14:38.527Z,100674.78
2023-04-28T00:17:08.450Z,100678.59
2023-04-28T00:19:38.338Z,100683.16
2023-04-28T00:22:08.262Z,100675.28
2023-04-28T00:24:40.571Z,100671.75
2023-04-28T00:27:10.483Z,100688.66
2023-04-28T00:29:42.853Z,100676.25
2023-04-28T00:32:12.494Z,100683.41
2023-04-28T00:34:42.410Z,100695.16
2023-04-28T00:37:12.250Z,100705.34
2023-04-28T00:39:48.636Z,100692.22
2023-04-28T00:42:18.346Z,100701.44
2023-04-28T00:44:48.187Z,100706.78
2023-04-28T00:47:18.562Z,100706.97
2023-04-28T00:49:49.149Z,100702.56
2023-04-28T00:52:18.942Z,100711.44
2023-04-28T00:54:49.305Z,100716.81
2023-04-28T00:57:19.077Z,100708.06
2023-04-28T00:59:48.768Z,100722.34
2023-04-28T01:02:21.713Z,100711.44
2023-04-28T01:04:51.469Z,100710.56
2023-04-28T01:07:23.395Z,100708.69
2023-04-28T01:09:53.237Z,100701.38
2023-04-28T01:12:23.034Z,100703.47
2023-04-28T01:14:58.764Z,100697.38
2023-04-28T01:17:28.888Z,100700.09
2023-04-28T01:19:58.798Z,100695.13
2023-04-28T01:22:29.660Z,100697.47
2023-04-28T01:25:01.753Z,100689.72
2023-04-28T01:27:31.658Z,100696.72
2023-04-28T01:30:24.771Z,100704.16
2023-04-28T01:32:54.811Z,100708.13
2023-04-28T01:35:26.884Z,100691.00
2023-04-28T01:37:56.587Z,100686.44
2023-04-28T01:40:26.479Z,100677.38
2023-04-28T01:42:56.296Z,100678.50
2023-04-28T01:45:26.012Z,100683.34
2023-04-28T01:47:55.845Z,100686.03
2023-04-28T01:50:28.426Z,100691.16
2023-04-28T01:52:58.079Z,100696.00
2023-04-28T01:55:28.244Z,100693.13
2023-04-28T01:58:00.034Z,100699.94
2023-04-28T02:00:29.674Z,100682.44
2023-04-28T02:02:59.411Z,100683.91
2023-04-28T02:05:31.778Z,100675.50
2023-04-28T02:08:01.492Z,100670.47
2023-04-28T02:10:31.269Z,100650.81
2023-04-28T02:13:02.777Z,100654.25
2023-04-28T02:15:32.454Z,100657.16
2023-04-28T02:18:02.093Z,100652.13
2023-04-28T02:20:33.160Z,100635.13
2023-04-28T02:23:03.643Z,100641.88
2023-04-28T02:25:33.568Z,100639.06
2023-04-28T02:28:03.549Z,100636.72
2023-04-28T02:30:33.253Z,100632.44
2023-04-28T02:33:03.026Z,100637.69
2023-04-28T02:35:32.760Z,100651.44
2023-04-28T02:38:02.564Z,100644.22
2023-04-28T02:40:32.205Z,100642.16
2023-04-28T02:43:02.136Z,100633.94
2023-04-28T02:45:32.370Z,100648.75
2023-04-28T02:48:05.059Z,100655.75
2023-04-28T02:50:34.749Z,100649.06
2023-04-28T02:53:04.431Z,100628.72
2023-04-28T02:55:34.133Z,100622.75
2023-04-28T02:58:03.850Z,100621.97
2023-04-28T03:00:33.560Z,100606.13
2023-04-28T03:03:03.573Z,100604.97
2023-04-28T03:05:33.387Z,100588.44
2023-04-28T03:08:03.229Z,100600.50
2023-04-28T03:10:33.119Z,100605.59
2023-04-28T03:13:02.970Z,100592.34
2023-04-28T03:15:32.659Z,100581.31
2023-04-28T03:18:02.827Z,100565.53
2023-04-28T03:20:32.677Z,100561.66
2023-04-28T03:23:04.125Z,100560.41
2023-04-28T03:25:33.958Z,100559.78
2023-04-28T03:28:03.661Z,100570.53
2023-04-28T03:30:33.437Z,100556.56
2023-04-28T03:33:03.387Z,100560.97
2023-04-28T03:35:33.293Z,100553.47
2023-04-28T03:38:02.981Z,100546.72
2023-04-28T03:40:32.842Z,100541.91
2023-04-28T03:43:04.615Z,100529.75
2023-04-28T03:45:34.800Z,100539.84
2023-04-28T03:48:04.567Z,100538.13
2023-04-28T03:50:34.337Z,100540.16
2023-04-28T03:53:04.242Z,100531.06
2023-04-28T03:55:33.973Z,100526.78
2023-04-28T03:58:03.673Z,100519.38
2023-04-28T04:00:34.270Z,100523.66
2023-04-28T04:03:04.021Z,100517.16
2023-04-28T04:05:33.858Z,100512.13
2023-04-28T04:08:04.642Z,100497.22
2023-04-28T04:10:34.363Z,100512.59
2023-04-28T04:13:04.084Z,100500.53
2023-04-28T04:15:33.945Z,100500.25
2023-04-28T04:18:06.670Z,100497.50
2023-04-28T04:20:36.386Z,100495.44
2023-04-28T04:23:06.034Z,100491.28
2023-04-28T04:25:36.644Z,100487.56
2023-04-28T04:28:06.527Z,100480.53
2023-04-28T04:30:36.259Z,100463.19
2023-04-28T04:33:06.077Z,100473.31
2023-04-28T04:35:35.931Z,100468.19
2023-04-28T04:38:05.989Z,100445.84
2023-04-28T04:40:35.704Z,100456.44
2023-04-28T04:43:05.577Z,100441.50
2023-04-28T04:45:35.275Z,100431.91
2023-04-28T04:48:05.324Z,100421.41
2023-04-28T04:50:35.074Z,100440.78
2023-04-28T04:53:04.740Z,100430.75
2023-04-28T04:55:34.448Z,100422.47
2023-04-28T04:58:04.117Z,100418.00
2023-04-28T05:00:33.894Z,100416.97
2023-04-28T05:03:05.715Z,100412.38
2023-04-28T05:05:39.030Z,100401.91
2023-04-28T05:08:08.780Z,100391.59
2023-04-28T05:10:38.461Z,100390.94
2023-04-28T05:13:08.648Z,100380.09
2023-04-28T05:15:42.094Z,100389.16
2023-04-28T05:18:15.626Z,100372.84
2023-04-28T05:20:55.556Z,100363.16
2023-04-28T05:23:26.256Z,100357.97
2023-04-28T05:25:56.059Z,100354.09
2023-04-28T05:28:25.718Z,100347.88
2023-04-28T05:30:55.420Z,100354.47
2023-04-28T05:33:25.677Z,100346.28
2023-04-28T05:35:55.386Z,100342.69
2023-04-28T05:38:25.229Z,100339.88
2023-04-28T05:40:54.908Z,100342.81
2023-04-28T05:43:24.633Z,100338.25
2023-04-28T05:45:54.653Z,100338.09
2023-04-28T05:48:24.428Z,100339.97
2023-04-28T05:50:54.085Z,100335.78
2023-04-28T05:53:23.912Z,100337.44
2023-04-28T05:55:54.198Z,100332.84
2023-04-28T05:58:26.669Z,100341.16
2023-04-28T06:00:56.679Z,100352.78
2023-04-28T06:03:27.181Z,100336.47
2023-04-28T06:05:57.183Z,100320.75
2023-04-28T06:08:26.968Z,100321.19
2023-04-28T06:10:56.694Z,100329.34
2023-04-28T06:13:27.358Z,100328.50
2023-04-28T06:15:57.156Z,100313.38
2023-04-28T06:18:27.409Z,100296.41
2023-04-28T06:20:57.564Z,100296.78
2023-04-28T06:23:27.526Z,100296.38
2023-04-28T06:25:57.254Z,100313.09
2023-04-28T06:28:26.918Z,100311.66
2023-04-28T06:30:56.632Z,100293.41
2023-04-28T06:33:26.361Z,100288.78
2023-04-28T06:35:56.163Z,100273.66
2023-04-28T06:38:25.762Z,100275.53
2023-04-28T06:40:55.455Z,100270.72
2023-04-28T06:43:25.101Z,100266.94
2023-04-28T06:45:54.720Z,100267.31
2023-04-28T06:48:24.396Z,100263.75
2023-04-28T06:50:54.163Z,100263.69
2023-04-28T06:53:23.750Z,100267.38
2023-04-28T06:55:53.632Z,100261.75
2023-04-28T06:58:23.408Z,100259.53
2023-04-28T07:00:53.223Z,100264.44
2023-04-28T07:03:22.947Z,100256.38
2023-04-28T07:05:52.892Z,100262.16
2023-04-28T07:08:22.653Z,100266.31
2023-04-28T07:10:52.313Z,100266.50
2023-04-28T07:13:21.958Z,100274.91
2023-04-28T07:15:51.643Z,100277.78
2023-04-28T07:18:21.286Z,100275.41
2023-04-28T07:20:50.928Z,100261.66
2023-04-28T07:23:20.613Z,100272.63
2023-04-28T07:25:50.401Z,100271.13
2023-04-28T07:28:20.024Z,100273.00
2023-04-28T07:30:49.671Z,100276.91
2023-04-28T07:33:19.314Z,100280.78
2023-04-28T07:35:49.650Z,100267.97
2023-04-28T07:38:20.084Z,100283.47
2023-04-28T07:43:19.504Z,100295.25
2023-04-28T07:45:50.508Z,100284.25
2023-04-28T07:48:20.300Z,100291.47
2023-04-28T07:50:50.016Z,100280.06
2023-04-28T07:53:19.692Z,100293.13
2023-04-28T07:55:49.332Z,100289.44
2023-04-28T07:58:19.025Z,100291.47
2023-04-28T08:00:48.742Z,100285.63
2023-04-28T08:03:18.599Z,100295.38
2023-04-28T08:05:48.442Z,100292.81
2023-04-28T08:08:18.169Z,100287.03
2023-04-28T08:10:47.817Z,100286.84
2023-04-28T08:13:18.261Z,100284.34
2023-04-28T08:15:49.245Z,100275.91
2023-04-28T08:18:19.056Z,100283.97
2023-04-28T08:20:48.786Z,100281.84
2023-04-28T08:23:18.587Z,100276.28
2023-04-28T08:25:49.008Z,100283.31
2023-04-28T08:28:18.636Z,100283.50
2023-04-28T08:30:48.508Z,100287.78
2023-04-28T08:33:18.206Z,100295.28
2023-04-28T08:35:47.986Z,100299.38
2023-04-28T08:38:20.425Z,100304.56
2023-04-28T08:40:50.742Z,100299.56
2023-04-28T08:43:22.428Z,100293.38
2023-04-28T08:45:52.151Z,100279.09
2023-04-28T08:48:22.898Z,100276.78
2023-04-28T08:50:54.106Z,100280.03
2023-04-28T08:53:27.782Z,100279.00
2023-04-28T08:55:58.667Z,100273.00
2023-04-28T08:58:28.903Z,100275.47
2023-04-28T09:00:58.532Z,100286.69
2023-04-28T09:03:29.679Z,100285.03
2023-04-28T09:05:59.371Z,100287.88
2023-04-28T09:08:28.970Z,100284.09
2023-04-28T09:11:11.639Z,100270.19
2023-04-28T09:13:41.704Z,100270.03
2023-04-28T09:16:11.405Z,100259.28
2023-04-28T09:18:41.668Z,100250.81
2023-04-28T09:21:12.121Z,100243.78
2023-04-28T09:23:52.166Z,100237.50
2023-04-28T09:26:21.853Z,100230.09
2023-04-28T09:28:51.515Z,100230.28
2023-04-28T09:31:29.587Z,100231.31
2023-04-28T09:34:00.293Z,100229.06
2023-04-28T09:36:34.160Z,100235.47
2023-04-28T09:39:03.997Z,100229.63
2023-04-28T09:41:46.837Z,100234.81
2023-04-28T09:44:19.249Z,100226.75
2023-04-28T09:46:49.612Z,100226.94
2023-04-28T09:49:19.274Z,100240.84
2023-04-28T09:51:48.886Z,100241.84
2023-04-28T09:54:18.611Z,100241.41
2023-04-28T09:56:48.330Z,100246.59
2023-04-28T09:59:18.076Z,100233.81
2023-04-28T10:01:47.769Z,100245.56
2023-04-28T10:04:17.593Z,100248.16
2023-04-28T10:06:47.514Z,100244.47
2023-04-28T10:09:18.110Z,100248.00
2023-04-28T10:11:47.752Z,100241.59
2023-04-28T10:14:17.378Z,100250.84
2023-04-28T10:16:47.081Z,100250.69
2023-04-28T10:19:16.712Z,100249.47
2023-04-28T10:21:56.895Z,100234.56
2023-04-28T10:24:30.977Z,100223.16
2023-04-28T10:27:07.934Z,100219.34
2023-04-28T10:29:37.900Z,100216.56
2023-04-28T10:32:30.558Z,100207.31
2023-04-28T10:35:25.079Z,100213.72
2023-04-28T10:38:07.596Z,100199.34
2023-04-28T10:40:41.042Z,100200.63
2023-04-28T10:43:11.954Z,100209.28
2023-04-28T10:46:02.363Z,100219.16
2023-04-28T10:48:35.085Z,100222.72
2023-04-28T10:51:17.068Z,100220.19
2023-04-28T10:53:47.505Z,100219.34
2023-04-28T10:56:29.737Z,100210.19
2023-04-28T10:59:02.522Z,100227.41
2023-04-28T11:01:36.464Z,100242.91
2023-04-28T11:04:14.809Z,100235.94
2023-04-28T11:06:48.646Z,100237.50
2023-04-28T11:09:21.117Z,100231.31
2023-04-28T11:12:03.664Z,100239.72
2023-04-28T11:14:34.385Z,100241.31
2023-04-28T11:17:05.428Z,100239.63
2023-04-28T11:19:35.865Z,100232.22
2023-04-28T11:22:06.825Z,100242.59
2023-04-28T11:27:05.760Z,100242.41
2023-04-28T11:29:42.409Z,100246.13
2023-04-28T11:32:12.822Z,100254.34
2023-04-28T11:34:42.654Z,100254.34
2023-04-28T11:37:12.477Z,100248.78
2023-04-28T11:39:42.916Z,100237.22
2023-04-28T11:42:12.874Z,100242.41
2023-04-28T11:44:42.621Z,100238.22
2023-04-28T11:47:12.509Z,100250.66
2023-04-28T11:49:45.377Z,100255.63
2023-04-28T11:52:15.375Z,100262.03
2023-04-28T11:54:45.180Z,100260.19
2023-04-28T11:57:24.915Z,100253.34
2023-04-28T11:59:54.642Z,100253.78
2023-04-28T12:02:31.218Z,100265.75
2023-04-28T12:05:09.082Z,100275.69
2023-04-28T12:07:46.038Z,100265.75
2023-04-28T12:10:20.383Z,100250.25
2023-04-28T12:12:52.759Z,100251.28
2023-04-28T12:15:23.438Z,100265.56
2023-04-28T12:17:53.336Z,100263.25
2023-04-28T12:23:09.134Z,100283.75
2023-04-28T12:25:48.761Z,100293.81
2023-04-28T12:28:18.469Z,100284.38
2023-04-28T12:30:48.160Z,100268.06
2023-04-28T12:33:32.835Z,100283.53
2023-04-28T12:36:03.026Z,100291.41
2023-04-28T12:38:32.781Z,100278.78
2023-04-28T12:41:02.612Z,100291.25
2023-04-28T12:43:32.279Z,100280.38
2023-04-28T12:46:02.141Z,100268.06
2023-04-28T12:48:33.386Z,100273.41
2023-04-28T12:51:03.054Z,100276.31
2023-04-28T12:53:32.646Z,100278.16
2023-04-28T12:56:02.395Z,100279.81
2023-04-28T12:58:32.143Z,100276.97
2023-04-28T13:01:01.889Z,100266.59
2023-04-28T13:03:31.818Z,100273.41
2023-04-28T13:06:01.622Z,100264.53
2023-04-28T13:08:35.520Z,100263.53
2023-04-28T13:11:19.701Z,100255.47
2023-04-28T13:13:52.888Z,100258.97
2023-04-28T13:16:22.847Z,100262.50
2023-04-28T13:18:53.508Z,100256.09
2023-04-28T13:21:23.249Z,100249.91
2023-04-28T13:23:52.892Z,100235.63
2023-04-28T13:26:23.763Z,100232.47
2023-04-28T13:28:54.171Z,100226.91
2023-04-28T13:31:23.853Z,100229.59
2023-04-28T13:33:53.755Z,100218.84
2023-04-28T13:36:23.722Z,100220.53
2023-04-28T13:38:53.546Z,100223.22
2023-04-28T13:41:23.581Z,100218.66
2023-04-28T13:43:53.315Z,100216.81
2023-04-28T13:46:23.416Z,100213.47
2023-04-28T13:48:53.150Z,100216.81
2023-04-28T13:51:22.826Z,100206.22
2023-04-28T13:53:52.666Z,100200.84
2023-04-28T13:56:22.790Z,100193.00
2023-04-28T13:58:52.853Z,100192.16
2023-04-28T14:01:22.732Z,100181.03
2023-04-28T14:03:52.603Z,100178.72
2023-04-28T14:06:22.922Z,100175.84
2023-04-28T14:08:52.642Z,100156.19
2023-04-28T14:11:22.466Z,100153.50
2023-04-28T14:13:52.168Z,100152.88
2023-04-28T14:16:21.853Z,100143.97
2023-04-28T14:18:51.649Z,100145.44
2023-04-28T14:21:21.404Z,100143.78
2023-04-28T14:23:51.089Z,100154.53
2023-04-28T14:26:21.473Z,100153.50
2023-04-28T14:28:51.125Z,100150.81
2023-04-28T14:31:21.318Z,100149.16
2023-04-28T14:33:51.038Z,100145.28
2023-04-28T14:36:20.719Z,100148.13
2023-04-28T14:38:50.439Z,100152.47
2023-04-28T14:41:20.096Z,100141.09
2023-04-28T14:43:49.757Z,100134.69
2023-04-28T14:46:24.525Z,100138.19
2023-04-28T14:48:55.301Z,100133.22
2023-04-28T14:51:25.189Z,100128.69
2023-04-28T14:53:54.936Z,100127.84
2023-04-28T14:56:24.696Z,100124.13
2023-04-28T14:58:54.558Z,100118.13
2023-04-28T15:01:24.186Z,100107.19
2023-04-28T15:03:54.054Z,100119.59
2023-04-28T15:06:24.346Z,100109.66
2023-04-28T15:08:54.019Z,100107.81
2023-04-28T15:11:23.730Z,100109.66
2023-04-28T15:13:53.453Z,100100.97
2023-04-28T15:16:23.171Z,100088.38
2023-04-28T15:18:53.007Z,100084.66
2023-04-28T15:21:22.755Z,100084.84
2023-04-28T15:23:52.474Z,100081.34
2023-04-28T15:26:22.204Z,100077.81
2023-04-28T15:28:52.188Z,100074.94
2023-04-28T15:31:24.680Z,100077.81
2023-04-28T15:33:54.669Z,100073.06
2023-04-28T15:36:24.321Z,100074.94
2023-04-28T15:38:54.415Z,100063.16
2023-04-28T15:41:24.083Z,100056.13
2023-04-28T15:43:53.800Z,100055.91
2023-04-28T15:46:24.164Z,100051.38
2023-04-28T15:48:54.089Z,100048.88
2023-04-28T15:51:24.894Z,100036.47
2023-04-28T15:53:56.871Z,100018.50
2023-04-28T15:56:26.661Z,100022.84
2023-04-28T15:58:56.417Z,100022.22
2023-04-28T16:01:26.636Z,100021.38
2023-04-28T16:03:56.660Z,100015.16
2023-04-28T16:06:27.073Z,100013.31
2023-04-28T16:08:58.412Z,100013.94
2023-04-28T16:11:30.874Z,99997.00
2023-04-28T16:14:00.785Z,100000.50
2023-04-28T16:16:30.807Z,99995.34
2023-04-28T16:19:00.528Z,99996.16
2023-04-28T16:21:30.204Z,100003.81
2023-04-28T16:24:00.066Z,100006.72
2023-04-28T16:26:29.819Z,99999.28
2023-04-28T16:28:59.456Z,99998.84
2023-04-28T16:31:29.245Z,100001.53
2023-04-28T16:33:58.976Z,99992.81
2023-04-28T16:36:29.965Z,99980.88
2023-04-28T16:38:59.567Z,99981.06
2023-04-28T16:41:29.233Z,99981.91
2023-04-28T16:43:58.846Z,99981.69
2023-04-28T16:46:28.578Z,99973.63
2023-04-28T16:48:58.368Z,99971.78
2023-04-28T16:51:29.684Z,99966.59
2023-04-28T16:53:59.343Z,99961.22
2023-04-28T16:56:29.839Z,99956.88
2023-04-28T16:58:59.548Z,99949.66
2023-04-28T17:01:31.578Z,99951.31
2023-04-28T17:04:01.594Z,99938.69
2023-04-28T17:06:31.475Z,99937.03
2023-04-28T17:09:01.326Z,99927.31
2023-04-28T17:11:30.992Z,99918.22
2023-04-28T17:14:00.733Z,99903.13
2023-04-28T17:16:34.318Z,99901.44
2023-04-28T17:19:05.272Z,99897.56
2023-04-28T17:21:35.288Z,99895.91
2023-04-28T17:24:05.034Z,99896.72
2023-04-28T17:26:34.734Z,99893.81
2023-04-28T17:29:04.387Z,99890.31
2023-04-28T17:31:34.923Z,99893.81
2023-04-28T17:34:05.859Z,99882.25
2023-04-28T17:36:35.619Z,99882.03
2023-04-28T17:39:06.194Z,99874.19
2023-04-28T17:41:35.996Z,99870.88
2023-04-28T17:44:05.685Z,99851.03
2023-04-28T17:46:35.652Z,99852.47
2023-04-28T17:49:05.676Z,99847.53
2023-04-28T17:51:35.374Z,99844.63
2023-04-28T17:54:07.566Z,99843.16
2023-04-28T17:56:41.667Z,99842.16
2023-04-28T17:59:11.462Z,99842.78
2023-04-28T18:01:41.156Z,99834.91
2023-04-28T18:04:11.033Z,99834.91
2023-04-28T18:06:40.752Z,99826.03
2023-04-28T18:09:10.415Z,99826.03
2023-04-28T18:11:44.432Z,99809.91
2023-04-28T18:14:14.127Z,99817.75
2023-04-28T18:16:43.860Z,99812.59
2023-04-28T18:19:13.622Z,99802.66
2023-04-28T18:21:43.621Z,99801.84
2023-04-28T18:24:13.333Z,99802.84
2023-04-28T18:26:43.507Z,99790.06
2023-04-28T18:29:13.497Z,99777.66
2023-04-28T18:31:43.854Z,99779.50
2023-04-28T18:34:13.597Z,99775.97
2023-04-28T18:36:43.289Z,99769.59
2023-04-28T18:39:13.140Z,99764.00
2023-04-28T18:41:42.944Z,99768.56
2023-04-28T18:44:12.580Z,99759.84
2023-04-28T18:46:42.581Z,99754.28
2023-04-28T18:49:12.223Z,99740.03
2023-04-28T18:51:41.858Z,99745.41
2023-04-28T18:54:11.691Z,99744.38
2023-04-28T18:56:41.652Z,99736.50
2023-04-28T18:59:11.315Z,99726.38
2023-04-28T19:01:41.066Z,99731.97
2023-04-28T19:04:11.006Z,99731.13
2023-04-28T19:11:38.886Z,99713.16
2023-04-28T19:14:08.899Z,99713.97
2023-04-28T19:16:38.616Z,99717.50
2023-04-28T19:19:09.634Z,99706.09
2023-04-28T19:21:46.043Z,99710.03
2023-04-28T19:24:15.809Z,99699.91
2023-04-28T19:26:45.556Z,99701.56
2023-04-28T19:29:18.626Z,99689.97
2023-04-28T19:34:17.304Z,99694.53
2023-04-28T19:36:46.980Z,99695.34
2023-04-28T19:39:16.798Z,99689.97
2023-04-28T19:44:15.844Z,99687.09
2023-04-28T19:46:46.338Z,99688.13
2023-04-28T19:49:16.173Z,99691.66
2023-04-28T19:51:45.931Z,99689.97
2023-04-28T19:54:16.780Z,99694.13
2023-04-28T19:56:46.455Z,99679.03
2023-04-28T19:59:16.147Z,99673.03
2023-04-28T20:01:46.303Z,99662.09
2023-04-28T20:04:16.113Z,99655.69
2023-04-28T20:06:45.903Z,99660.63
2023-04-28T20:09:15.641Z,99646.97
2023-04-28T20:11:45.235Z,99636.88
2023-04-28T20:14:15.424Z,99631.28
2023-04-28T20:16:46.014Z,99629.41
2023-04-28T20:19:16.122Z,99627.78
2023-04-28T20:21:46.193Z,99620.97
2023-04-28T20:24:16.266Z,99602.53
2023-04-28T20:26:46.033Z,99609.34
2023-04-28T20:29:15.996Z,99605.84
2023-04-28T20:31:45.885Z,99590.75
2023-04-28T20:34:19.590Z,99591.81
2023-04-28T20:36:49.472Z,99582.28
2023-04-28T20:39:19.317Z,99577.94
2023-04-28T20:41:49.638Z,99589.31
2023-04-28T20:44:19.274Z,99592.84
2023-04-28T20:46:48.954Z,99578.56
2023-04-28T20:49:18.840Z,99583.94
2023-04-28T20:51:49.353Z,99570.50
2023-04-28T20:54:19.164Z,99566.78
2023-04-28T20:56:48.827Z,99566.38
2023-04-28T20:59:18.514Z,99561.81
2023-04-28T21:01:48.314Z,99560.38
2023-04-28T21:04:18.345Z,99559.56
2023-04-28T21:06:50.612Z,99559.94
2023-04-28T21:09:20.527Z,99565.09
2023-04-28T21:11:50.338Z,99556.84
2023-04-28T21:14:20.025Z,99569.22
2023-04-28T21:16:49.777Z,99558.28
2023-04-28T21:19:20.096Z,99566.75
2023-04-28T21:21:49.780Z,99568.41
2023-04-28T21:24:19.467Z,99573.34
2023-04-28T21:26:49.155Z,99576.25
2023-04-28T21:29:20.002Z,99575.22
2023-04-28T21:31:49.758Z,99558.28
2023-04-28T21:34:19.396Z,99557.44
2023-04-28T21:36:49.177Z,99558.88
2023-04-28T21:39:19.111Z,99556.19
2023-04-28T21:41:48.695Z,99557.84
2023-04-28T21:44:18.351Z,99559.88
2023-04-28T21:46:48.727Z,99547.50
2023-04-28T21:49:18.487Z,99547.06
2023-04-28T21:51:48.162Z,99553.25
2023-04-28T21:54:17.857Z,99552.22
2023-04-28T21:56:48.088Z,99548.31
2023-04-28T21:59:19.453Z,99545.84
2023-04-28T22:01:49.673Z,99541.69
2023-04-28T22:04:19.625Z,99533.63
2023-04-28T22:06:49.404Z,99538.59
2023-04-28T22:09:19.178Z,99535.50
2023-04-28T22:11:48.801Z,99536.09
2023-04-28T22:14:34.925Z,99529.09
2023-04-28T22:17:08.011Z,99526.81
2023-04-28T22:19:37.685Z,99532.19
2023-04-28T22:22:08.560Z,99532.41
2023-04-28T22:24:38.658Z,99536.94
2023-04-28T22:27:08.330Z,99540.88
2023-04-28T22:29:37.988Z,99534.06
2023-04-28T22:32:09.941Z,99516.69
2023-04-28T22:34:39.605Z,99512.53
2023-04-28T22:37:09.281Z,99517.53
2023-04-28T22:39:39.194Z,99513.41
2023-04-28T22:42:09.001Z,99508.41
2023-04-28T22:44:39.118Z,99509.47
2023-04-28T22:47:08.815Z,99508.25
2023-04-28T22:49:38.514Z,99506.56
2023-04-28T22:52:08.191Z,99506.16
2023-04-28T22:54:40.356Z,99507.19
2023-04-28T22:57:10.567Z,99503.28
2023-04-28T22:59:40.160Z,99512.00
2023-04-28T23:02:11.487Z,99515.06
2023-04-28T23:04:41.640Z,99509.50
2023-04-28T23:07:11.315Z,99502.66
2023-04-28T23:09:41.173Z,99499.16
2023-04-28T23:12:10.776Z,99486.53
2023-04-28T23:14:40.448Z,99482.84
2023-04-28T23:17:10.074Z,99484.91
2023-04-28T23:19:40.574Z,99484.69
2023-04-28T23:22:10.358Z,99488.41
2023-04-28T23:24:41.441Z,99481.81
2023-04-28T23:27:11.210Z,99475.44
2023-04-28T23:29:40.912Z,99477.91
2023-04-28T23:32:10.759Z,99470.44
2023-04-28T23:34:43.240Z,99464.69
2023-04-28T23:37:12.905Z,99462.81
2023-04-28T23:39:42.584Z,99460.97
2023-04-28T23:42:12.360Z,99458.28
2023-04-28T23:44:42.022Z,99456.84
2023-04-28T23:47:11.654Z,99457.03
2023-04-28T23:49:41.283Z,99457.66
2023-04-28T23:52:10.962Z,99444.41
2023-04-28T23:54:40.575Z,99440.28
2023-04-28T23:57:10.687Z,99434.28
2023-04-28T23:59:40.368Z,99432.25
